sensor_id;sensor_type;location;lat;lon;timestamp;P1;durP1;ratioP1;P2;durP2;ratioP2
19547;SDS011;9919;58.014;11.826;2024-01-16T00:01:37;3.15;;;1.52;;
19547;SDS011;9919;58.014;11.826;2024-01-16T00:03:41;1.20;;;1.10;;
19547;SDS011;9919;58.014;11.826;2024-01-16T00:05:44;1.92;;;1.55;;
19547;SDS011;9919;58.014;11.826;2024-01-16T00:07:45;3.72;;;1.95;;
19547;SDS011;9919;58.014;11.826;2024-01-16T00:09:46;1.73;;;1.35;;
19547;SDS011;9919;58.014;11.826;2024-01-16T00:11:48;1.25;;;1.15;;
19547;SDS011;9919;58.014;11.826;2024-01-16T00:13:49;1.92;;;1.65;;
19547;SDS011;9919;58.014;11.826;2024-01-16T00:15:51;3.88;;;1.55;;
19547;SDS011;9919;58.014;11.826;2024-01-16T00:17:52;1.77;;;1.60;;
19547;SDS011;9919;58.014;11.826;2024-01-16T00:19:53;1.40;;;1.30;;
19547;SDS011;9919;58.014;11.826;2024-01-16T00:21:55;1.35;;;1.25;;
19547;SDS011;9919;58.014;11.826;2024-01-16T00:23:56;1.80;;;1.42;;
19547;SDS011;9919;58.014;11.826;2024-01-16T00:25:58;1.38;;;1.27;;
19547;SDS011;9919;58.014;11.826;2024-01-16T00:28:01;1.77;;;1.65;;
19547;SDS011;9919;58.014;11.826;2024-01-16T00:30:02;3.45;;;1.67;;
19547;SDS011;9919;58.014;11.826;2024-01-16T00:32:04;1.10;;;1.10;;
19547;SDS011;9919;58.014;11.826;2024-01-16T00:34:06;1.67;;;1.13;;
19547;SDS011;9919;58.014;11.826;2024-01-16T00:36:08;0.88;;;0.88;;
19547;SDS011;9919;58.014;11.826;2024-01-16T00:38:10;2.50;;;1.40;;
19547;SDS011;9919;58.014;11.826;2024-01-16T00:40:11;3.70;;;1.10;;
19547;SDS011;9919;58.014;11.826;2024-01-16T00:42:13;1.48;;;1.38;;
19547;SDS011;9919;58.014;11.826;2024-01-16T00:44:14;1.42;;;0.85;;
19547;SDS011;9919;58.014;11.826;2024-01-16T00:46:16;1.45;;;1.40;;
19547;SDS011;9919;58.014;11.826;2024-01-16T00:48:18;1.77;;;1.20;;
19547;SDS011;9919;58.014;11.826;2024-01-16T00:50:20;1.20;;;1.20;;
19547;SDS011;9919;58.014;11.826;2024-01-16T00:52:22;1.52;;;1.27;;
19547;SDS011;9919;58.014;11.826;2024-01-16T00:54:23;0.93;;;0.82;;
19547;SDS011;9919;58.014;11.826;2024-01-16T00:56:25;1.38;;;1.27;;
19547;SDS011;9919;58.014;11.826;2024-01-16T00:58:27;1.33;;;1.23;;
19547;SDS011;9919;58.014;11.826;2024-01-16T01:00:29;1.42;;;1.30;;
19547;SDS011;9919;58.014;11.826;2024-01-16T01:02:31;1.40;;;1.17;;
19547;SDS011;9919;58.014;11.826;2024-01-16T01:04:33;3.70;;;1.17;;
19547;SDS011;9919;58.014;11.826;2024-01-16T01:06:35;0.88;;;0.88;;
19547;SDS011;9919;58.014;11.826;2024-01-16T01:08:36;1.00;;;1.00;;
19547;SDS011;9919;58.014;11.826;2024-01-16T01:10:38;1.55;;;1.20;;
19547;SDS011;9919;58.014;11.826;2024-01-16T01:12:40;3.40;;;1.65;;
19547;SDS011;9919;58.014;11.826;2024-01-16T01:14:41;3.05;;;1.52;;
19547;SDS011;9919;58.014;11.826;2024-01-16T01:16:42;1.15;;;1.05;;
19547;SDS011;9919;58.014;11.826;2024-01-16T01:18:44;1.10;;;1.10;;
19547;SDS011;9919;58.014;11.826;2024-01-16T01:20:45;1.90;;;1.38;;
19547;SDS011;9919;58.014;11.826;2024-01-16T01:22:47;1.02;;;1.02;;
19547;SDS011;9919;58.014;11.826;2024-01-16T01:24:48;2.05;;;0.88;;
19547;SDS011;9919;58.014;11.826;2024-01-16T01:26:49;2.05;;;1.20;;
19547;SDS011;9919;58.014;11.826;2024-01-16T01:28:51;2.35;;;1.08;;
19547;SDS011;9919;58.014;11.826;2024-01-16T01:30:52;2.05;;;1.25;;
19547;SDS011;9919;58.014;11.826;2024-01-16T01:32:54;0.80;;;0.80;;
19547;SDS011;9919;58.014;11.826;2024-01-16T01:34:55;3.03;;;1.33;;
19547;SDS011;9919;58.014;11.826;2024-01-16T01:36:57;2.40;;;1.52;;
19547;SDS011;9919;58.014;11.826;2024-01-16T01:38:58;0.73;;;0.73;;
19547;SDS011;9919;58.014;11.826;2024-01-16T01:40:59;1.58;;;1.08;;
19547;SDS011;9919;58.014;11.826;2024-01-16T01:43:16;1.35;;;1.25;;
19547;SDS011;9919;58.014;11.826;2024-01-16T01:45:19;0.77;;;0.77;;
19547;SDS011;9919;58.014;11.826;2024-01-16T01:47:21;1.27;;;1.17;;
19547;SDS011;9919;58.014;11.826;2024-01-16T01:49:23;1.92;;;1.40;;
19547;SDS011;9919;58.014;11.826;2024-01-16T01:51:25;2.15;;;1.58;;
19547;SDS011;9919;58.014;11.826;2024-01-16T01:53:27;0.90;;;0.90;;
19547;SDS011;9919;58.014;11.826;2024-01-16T01:55:28;1.45;;;1.38;;
19547;SDS011;9919;58.014;11.826;2024-01-16T01:57:32;0.55;;;0.55;;
19547;SDS011;9919;58.014;11.826;2024-01-16T01:59:34;1.15;;;0.98;;
19547;SDS011;9919;58.014;11.826;2024-01-16T02:01:36;1.70;;;1.35;;
19547;SDS011;9919;58.014;11.826;2024-01-16T02:03:44;1.30;;;1.15;;
19547;SDS011;9919;58.014;11.826;2024-01-16T02:05:46;1.23;;;1.08;;
19547;SDS011;9919;58.014;11.826;2024-01-16T02:07:48;1.10;;;1.00;;
19547;SDS011;9919;58.014;11.826;2024-01-16T02:09:49;1.45;;;1.02;;
19547;SDS011;9919;58.014;11.826;2024-01-16T02:11:51;1.40;;;1.30;;
19547;SDS011;9919;58.014;11.826;2024-01-16T02:13:52;1.65;;;1.38;;
19547;SDS011;9919;58.014;11.826;2024-01-16T02:15:54;1.35;;;0.73;;
19547;SDS011;9919;58.014;11.826;2024-01-16T02:17:57;1.15;;;0.85;;
19547;SDS011;9919;58.014;11.826;2024-01-16T02:19:58;2.03;;;1.40;;
19547;SDS011;9919;58.014;11.826;2024-01-16T02:22:00;1.00;;;0.93;;
19547;SDS011;9919;58.014;11.826;2024-01-16T02:24:01;0.75;;;0.75;;
19547;SDS011;9919;58.014;11.826;2024-01-16T02:26:03;1.83;;;1.15;;
19547;SDS011;9919;58.014;11.826;2024-01-16T02:28:05;0.88;;;0.88;;
19547;SDS011;9919;58.014;11.826;2024-01-16T02:30:06;1.98;;;1.30;;
19547;SDS011;9919;58.014;11.826;2024-01-16T02:32:09;1.27;;;1.17;;
19547;SDS011;9919;58.014;11.826;2024-01-16T02:34:12;0.80;;;0.80;;
19547;SDS011;9919;58.014;11.826;2024-01-16T02:36:14;1.67;;;1.20;;
19547;SDS011;9919;58.014;11.826;2024-01-16T02:38:15;2.55;;;1.40;;
19547;SDS011;9919;58.014;11.826;2024-01-16T02:40:16;0.88;;;0.88;;
19547;SDS011;9919;58.014;11.826;2024-01-16T02:42:19;0.73;;;0.73;;
19547;SDS011;9919;58.014;11.826;2024-01-16T02:44:21;1.08;;;0.90;;
19547;SDS011;9919;58.014;11.826;2024-01-16T02:46:22;0.65;;;0.65;;
19547;SDS011;9919;58.014;11.826;2024-01-16T02:48:24;1.13;;;1.02;;
19547;SDS011;9919;58.014;11.826;2024-01-16T02:50:26;1.63;;;0.95;;
19547;SDS011;9919;58.014;11.826;2024-01-16T02:52:28;0.70;;;0.70;;
19547;SDS011;9919;58.014;11.826;2024-01-16T02:54:30;1.15;;;0.93;;
19547;SDS011;9919;58.014;11.826;2024-01-16T02:56:31;0.60;;;0.60;;
19547;SDS011;9919;58.014;11.826;2024-01-16T02:58:32;0.93;;;0.90;;
19547;SDS011;9919;58.014;11.826;2024-01-16T03:00:34;1.90;;;0.77;;
19547;SDS011;9919;58.014;11.826;2024-01-16T03:02:35;0.82;;;0.73;;
19547;SDS011;9919;58.014;11.826;2024-01-16T03:04:37;1.45;;;0.88;;
19547;SDS011;9919;58.014;11.826;2024-01-16T03:06:39;0.80;;;0.80;;
19547;SDS011;9919;58.014;11.826;2024-01-16T03:08:40;0.70;;;0.70;;
19547;SDS011;9919;58.014;11.826;2024-01-16T03:10:42;1.10;;;0.93;;
19547;SDS011;9919;58.014;11.826;2024-01-16T03:12:43;1.65;;;1.02;;
19547;SDS011;9919;58.014;11.826;2024-01-16T03:14:45;0.80;;;0.80;;
19547;SDS011;9919;58.014;11.826;2024-01-16T03:16:46;0.60;;;0.60;;
19547;SDS011;9919;58.014;11.826;2024-01-16T03:18:48;0.35;;;0.35;;
19547;SDS011;9919;58.014;11.826;2024-01-16T03:20:50;1.23;;;1.13;;
19547;SDS011;9919;58.014;11.826;2024-01-16T03:22:52;1.00;;;0.57;;
19547;SDS011;9919;58.014;11.826;2024-01-16T03:24:53;1.00;;;1.00;;
19547;SDS011;9919;58.014;11.826;2024-01-16T03:26:55;0.57;;;0.55;;
19547;SDS011;9919;58.014;11.826;2024-01-16T03:28:56;1.08;;;0.95;;
19547;SDS011;9919;58.014;11.826;2024-01-16T03:30:58;0.90;;;0.90;;
19547;SDS011;9919;58.014;11.826;2024-01-16T03:32:59;0.55;;;0.55;;
19547;SDS011;9919;58.014;11.826;2024-01-16T03:35:01;0.70;;;0.70;;
19547;SDS011;9919;58.014;11.826;2024-01-16T03:37:03;0.82;;;0.65;;
19547;SDS011;9919;58.014;11.826;2024-01-16T03:39:04;0.73;;;0.73;;
19547;SDS011;9919;58.014;11.826;2024-01-16T03:41:06;0.80;;;0.80;;
19547;SDS011;9919;58.014;11.826;2024-01-16T03:43:08;0.63;;;0.57;;
19547;SDS011;9919;58.014;11.826;2024-01-16T03:45:09;0.77;;;0.77;;
19547;SDS011;9919;58.014;11.826;2024-01-16T03:47:11;1.08;;;0.98;;
19547;SDS011;9919;58.014;11.826;2024-01-16T03:49:12;0.50;;;0.50;;
19547;SDS011;9919;58.014;11.826;2024-01-16T03:51:14;0.52;;;0.52;;
19547;SDS011;9919;58.014;11.826;2024-01-16T03:53:17;0.55;;;0.55;;
19547;SDS011;9919;58.014;11.826;2024-01-16T03:55:19;0.60;;;0.60;;
19547;SDS011;9919;58.014;11.826;2024-01-16T03:57:21;1.80;;;1.13;;
19547;SDS011;9919;58.014;11.826;2024-01-16T03:59:23;0.55;;;0.52;;
19547;SDS011;9919;58.014;11.826;2024-01-16T04:01:31;1.02;;;0.73;;
19547;SDS011;9919;58.014;11.826;2024-01-16T04:03:33;1.60;;;0.85;;
19547;SDS011;9919;58.014;11.826;2024-01-16T04:05:38;0.52;;;0.52;;
19547;SDS011;9919;58.014;11.826;2024-01-16T04:07:40;0.70;;;0.55;;
19547;SDS011;9919;58.014;11.826;2024-01-16T04:09:44;1.02;;;0.70;;
19547;SDS011;9919;58.014;11.826;2024-01-16T04:11:49;1.17;;;0.57;;
19547;SDS011;9919;58.014;11.826;2024-01-16T04:13:50;0.45;;;0.45;;
19547;SDS011;9919;58.014;11.826;2024-01-16T04:15:52;0.43;;;0.43;;
19547;SDS011;9919;58.014;11.826;2024-01-16T04:17:53;0.80;;;0.80;;
19547;SDS011;9919;58.014;11.826;2024-01-16T04:19:55;0.60;;;0.60;;
19547;SDS011;9919;58.014;11.826;2024-01-16T04:21:56;0.60;;;0.60;;
19547;SDS011;9919;58.014;11.826;2024-01-16T04:23:59;0.60;;;0.60;;
19547;SDS011;9919;58.014;11.826;2024-01-16T04:26:00;0.32;;;0.32;;
19547;SDS011;9919;58.014;11.826;2024-01-16T04:28:03;0.47;;;0.47;;
19547;SDS011;9919;58.014;11.826;2024-01-16T04:30:05;1.05;;;0.65;;
19547;SDS011;9919;58.014;11.826;2024-01-16T04:32:07;0.47;;;0.47;;
19547;SDS011;9919;58.014;11.826;2024-01-16T04:34:08;1.95;;;0.75;;
19547;SDS011;9919;58.014;11.826;2024-01-16T04:36:10;0.60;;;0.60;;
19547;SDS011;9919;58.014;11.826;2024-01-16T04:38:11;0.85;;;0.57;;
19547;SDS011;9919;58.014;11.826;2024-01-16T04:40:13;0.60;;;0.60;;
19547;SDS011;9919;58.014;11.826;2024-01-16T04:42:15;0.60;;;0.60;;
19547;SDS011;9919;58.014;11.826;2024-01-16T04:44:17;0.77;;;0.77;;
19547;SDS011;9919;58.014;11.826;2024-01-16T04:46:19;1.55;;;0.50;;
19547;SDS011;9919;58.014;11.826;2024-01-16T04:48:20;0.68;;;0.52;;
19547;SDS011;9919;58.014;11.826;2024-01-16T04:50:22;0.43;;;0.43;;
19547;SDS011;9919;58.014;11.826;2024-01-16T04:52:23;0.73;;;0.65;;
19547;SDS011;9919;58.014;11.826;2024-01-16T04:54:24;1.10;;;0.77;;
19547;SDS011;9919;58.014;11.826;2024-01-16T04:56:27;0.43;;;0.43;;
19547;SDS011;9919;58.014;11.826;2024-01-16T04:58:28;0.68;;;0.55;;
19547;SDS011;9919;58.014;11.826;2024-01-16T05:00:31;0.25;;;0.25;;
19547;SDS011;9919;58.014;11.826;2024-01-16T05:02:33;0.50;;;0.50;;
19547;SDS011;9919;58.014;11.826;2024-01-16T05:04:36;0.80;;;0.47;;
19547;SDS011;9919;58.014;11.826;2024-01-16T05:06:38;0.60;;;0.60;;
19547;SDS011;9919;58.014;11.826;2024-01-16T05:08:40;0.68;;;0.63;;
19547;SDS011;9919;58.014;11.826;2024-01-16T05:10:43;0.50;;;0.50;;
19547;SDS011;9919;58.014;11.826;2024-01-16T05:12:44;0.60;;;0.60;;
19547;SDS011;9919;58.014;11.826;2024-01-16T05:14:46;0.45;;;0.45;;
19547;SDS011;9919;58.014;11.826;2024-01-16T05:16:47;0.50;;;0.50;;
19547;SDS011;9919;58.014;11.826;2024-01-16T05:18:48;0.50;;;0.50;;
19547;SDS011;9919;58.014;11.826;2024-01-16T05:20:50;0.40;;;0.35;;
19547;SDS011;9919;58.014;11.826;2024-01-16T05:22:51;0.68;;;0.68;;
19547;SDS011;9919;58.014;11.826;2024-01-16T05:24:53;1.35;;;0.50;;
19547;SDS011;9919;58.014;11.826;2024-01-16T05:26:54;1.40;;;0.70;;
19547;SDS011;9919;58.014;11.826;2024-01-16T05:28:56;0.82;;;0.70;;
19547;SDS011;9919;58.014;11.826;2024-01-16T05:30:57;0.88;;;0.45;;
19547;SDS011;9919;58.014;11.826;2024-01-16T05:32:59;0.75;;;0.75;;
19547;SDS011;9919;58.014;11.826;2024-01-16T05:35:01;0.55;;;0.40;;
19547;SDS011;9919;58.014;11.826;2024-01-16T05:37:03;0.50;;;0.50;;
19547;SDS011;9919;58.014;11.826;2024-01-16T05:39:04;0.70;;;0.70;;
19547;SDS011;9919;58.014;11.826;2024-01-16T05:41:06;1.15;;;0.75;;
19547;SDS011;9919;58.014;11.826;2024-01-16T05:43:07;0.88;;;0.60;;
19547;SDS011;9919;58.014;11.826;2024-01-16T05:45:09;0.73;;;0.63;;
19547;SDS011;9919;58.014;11.826;2024-01-16T05:47:10;0.80;;;0.80;;
19547;SDS011;9919;58.014;11.826;2024-01-16T05:49:12;0.88;;;0.55;;
19547;SDS011;9919;58.014;11.826;2024-01-16T05:51:13;0.63;;;0.57;;
19547;SDS011;9919;58.014;11.826;2024-01-16T05:53:15;0.60;;;0.60;;
19547;SDS011;9919;58.014;11.826;2024-01-16T05:55:17;0.50;;;0.50;;
19547;SDS011;9919;58.014;11.826;2024-01-16T05:57:19;0.60;;;0.60;;
19547;SDS011;9919;58.014;11.826;2024-01-16T05:59:20;0.52;;;0.52;;
19547;SDS011;9919;58.014;11.826;2024-01-16T06:01:22;1.20;;;0.65;;
19547;SDS011;9919;58.014;11.826;2024-01-16T06:03:25;0.40;;;0.40;;
19547;SDS011;9919;58.014;11.826;2024-01-16T06:05:26;1.00;;;0.73;;
19547;SDS011;9919;58.014;11.826;2024-01-16T06:07:27;0.63;;;0.50;;
19547;SDS011;9919;58.014;11.826;2024-01-16T06:09:29;0.50;;;0.50;;
19547;SDS011;9919;58.014;11.826;2024-01-16T06:11:32;2.08;;;0.50;;
19547;SDS011;9919;58.014;11.826;2024-01-16T06:13:34;0.47;;;0.47;;
19547;SDS011;9919;58.014;11.826;2024-01-16T06:15:36;0.57;;;0.57;;
19547;SDS011;9919;58.014;11.826;2024-01-16T06:17:37;1.15;;;0.85;;
19547;SDS011;9919;58.014;11.826;2024-01-16T06:19:38;0.65;;;0.65;;
19547;SDS011;9919;58.014;11.826;2024-01-16T06:21:40;0.60;;;0.60;;
19547;SDS011;9919;58.014;11.826;2024-01-16T06:23:41;0.70;;;0.70;;
19547;SDS011;9919;58.014;11.826;2024-01-16T06:25:43;0.32;;;0.32;;
19547;SDS011;9919;58.014;11.826;2024-01-16T06:27:45;0.57;;;0.57;;
19547;SDS011;9919;58.014;11.826;2024-01-16T06:29:50;0.20;;;0.20;;
19547;SDS011;9919;58.014;11.826;2024-01-16T06:31:51;0.25;;;0.25;;
19547;SDS011;9919;58.014;11.826;2024-01-16T06:33:52;1.25;;;0.50;;
19547;SDS011;9919;58.014;11.826;2024-01-16T06:35:57;0.57;;;0.50;;
19547;SDS011;9919;58.014;11.826;2024-01-16T06:37:59;0.93;;;0.68;;
19547;SDS011;9919;58.014;11.826;2024-01-16T06:40:02;0.65;;;0.65;;
19547;SDS011;9919;58.014;11.826;2024-01-16T06:42:04;0.45;;;0.45;;
19547;SDS011;9919;58.014;11.826;2024-01-16T06:44:06;0.30;;;0.30;;
19547;SDS011;9919;58.014;11.826;2024-01-16T06:46:08;1.02;;;0.70;;
19547;SDS011;9919;58.014;11.826;2024-01-16T06:48:10;0.77;;;0.55;;
19547;SDS011;9919;58.014;11.826;2024-01-16T06:50:11;0.93;;;0.80;;
19547;SDS011;9919;58.014;11.826;2024-01-16T06:52:12;0.50;;;0.50;;
19547;SDS011;9919;58.014;11.826;2024-01-16T06:54:14;0.30;;;0.30;;
19547;SDS011;9919;58.014;11.826;2024-01-16T06:56:15;0.82;;;0.73;;
19547;SDS011;9919;58.014;11.826;2024-01-16T06:58:17;0.30;;;0.30;;
19547;SDS011;9919;58.014;11.826;2024-01-16T07:00:19;0.55;;;0.55;;
19547;SDS011;9919;58.014;11.826;2024-01-16T07:02:22;1.08;;;0.55;;
19547;SDS011;9919;58.014;11.826;2024-01-16T07:04:24;0.57;;;0.57;;
19547;SDS011;9919;58.014;11.826;2024-01-16T07:06:25;0.50;;;0.50;;
19547;SDS011;9919;58.014;11.826;2024-01-16T07:08:27;0.68;;;0.68;;
19547;SDS011;9919;58.014;11.826;2024-01-16T07:10:29;0.88;;;0.70;;
19547;SDS011;9919;58.014;11.826;2024-01-16T07:12:31;0.30;;;0.30;;
19547;SDS011;9919;58.014;11.826;2024-01-16T07:14:33;0.65;;;0.65;;
19547;SDS011;9919;58.014;11.826;2024-01-16T07:16:34;0.70;;;0.70;;
19547;SDS011;9919;58.014;11.826;2024-01-16T07:18:36;0.82;;;0.80;;
19547;SDS011;9919;58.014;11.826;2024-01-16T07:20:38;1.08;;;0.55;;
19547;SDS011;9919;58.014;11.826;2024-01-16T07:22:40;0.60;;;0.50;;
19547;SDS011;9919;58.014;11.826;2024-01-16T07:24:41;0.73;;;0.73;;
19547;SDS011;9919;58.014;11.826;2024-01-16T07:26:43;0.50;;;0.50;;
19547;SDS011;9919;58.014;11.826;2024-01-16T07:28:44;0.50;;;0.50;;
19547;SDS011;9919;58.014;11.826;2024-01-16T07:30:48;0.40;;;0.40;;
19547;SDS011;9919;58.014;11.826;2024-01-16T07:32:49;0.63;;;0.63;;
19547;SDS011;9919;58.014;11.826;2024-01-16T07:34:51;0.65;;;0.65;;
19547;SDS011;9919;58.014;11.826;2024-01-16T07:36:53;0.63;;;0.63;;
19547;SDS011;9919;58.014;11.826;2024-01-16T07:38:55;0.50;;;0.50;;
19547;SDS011;9919;58.014;11.826;2024-01-16T07:40:58;0.55;;;0.55;;
19547;SDS011;9919;58.014;11.826;2024-01-16T07:42:59;0.77;;;0.52;;
19547;SDS011;9919;58.014;11.826;2024-01-16T07:45:01;0.68;;;0.68;;
19547;SDS011;9919;58.014;11.826;2024-01-16T07:47:04;0.45;;;0.45;;
19547;SDS011;9919;58.014;11.826;2024-01-16T07:49:06;1.10;;;0.90;;
19547;SDS011;9919;58.014;11.826;2024-01-16T07:51:07;0.60;;;0.60;;
19547;SDS011;9919;58.014;11.826;2024-01-16T07:53:08;0.50;;;0.40;;
19547;SDS011;9919;58.014;11.826;2024-01-16T07:55:10;0.40;;;0.40;;
19547;SDS011;9919;58.014;11.826;2024-01-16T07:57:11;0.30;;;0.30;;
19547;SDS011;9919;58.014;11.826;2024-01-16T07:59:13;0.50;;;0.50;;
19547;SDS011;9919;58.014;11.826;2024-01-16T08:01:14;0.90;;;0.68;;
19547;SDS011;9919;58.014;11.826;2024-01-16T08:03:16;1.25;;;1.15;;
19547;SDS011;9919;58.014;11.826;2024-01-16T08:05:18;0.43;;;0.43;;
19547;SDS011;9919;58.014;11.826;2024-01-16T08:07:21;2.20;;;0.80;;
19547;SDS011;9919;58.014;11.826;2024-01-16T08:09:23;1.20;;;0.70;;
19547;SDS011;9919;58.014;11.826;2024-01-16T08:11:25;0.70;;;0.70;;
19547;SDS011;9919;58.014;11.826;2024-01-16T08:13:26;1.20;;;0.95;;
19547;SDS011;9919;58.014;11.826;2024-01-16T08:15:28;3.97;;;0.80;;
19547;SDS011;9919;58.014;11.826;2024-01-16T08:17:29;0.68;;;0.68;;
19547;SDS011;9919;58.014;11.826;2024-01-16T08:19:31;1.33;;;0.75;;
19547;SDS011;9919;58.014;11.826;2024-01-16T08:21:32;1.77;;;0.80;;
19547;SDS011;9919;58.014;11.826;2024-01-16T08:23:34;0.68;;;0.50;;
19547;SDS011;9919;58.014;11.826;2024-01-16T08:25:36;0.65;;;0.55;;
19547;SDS011;9919;58.014;11.826;2024-01-16T08:27:37;2.83;;;1.05;;
19547;SDS011;9919;58.014;11.826;2024-01-16T08:29:39;2.00;;;0.60;;
19547;SDS011;9919;58.014;11.826;2024-01-16T08:31:41;0.98;;;0.73;;
19547;SDS011;9919;58.014;11.826;2024-01-16T08:33:42;0.68;;;0.68;;
19547;SDS011;9919;58.014;11.826;2024-01-16T08:35:43;0.70;;;0.70;;
19547;SDS011;9919;58.014;11.826;2024-01-16T08:37:45;0.43;;;0.43;;
19547;SDS011;9919;58.014;11.826;2024-01-16T08:39:48;0.82;;;0.82;;
19547;SDS011;9919;58.014;11.826;2024-01-16T08:41:49;1.30;;;0.65;;
19547;SDS011;9919;58.014;11.826;2024-01-16T08:43:51;2.28;;;0.63;;
19547;SDS011;9919;58.014;11.826;2024-01-16T08:45:54;2.15;;;1.00;;
19547;SDS011;9919;58.014;11.826;2024-01-16T08:47:55;1.02;;;1.00;;
19547;SDS011;9919;58.014;11.826;2024-01-16T08:49:58;0.88;;;0.88;;
19547;SDS011;9919;58.014;11.826;2024-01-16T08:51:59;0.70;;;0.70;;
19547;SDS011;9919;58.014;11.826;2024-01-16T08:54:01;0.85;;;0.77;;
19547;SDS011;9919;58.014;11.826;2024-01-16T08:56:03;1.17;;;1.10;;
19547;SDS011;9919;58.014;11.826;2024-01-16T08:58:06;1.95;;;0.80;;
19547;SDS011;9919;58.014;11.826;2024-01-16T09:00:08;1.48;;;1.02;;
19547;SDS011;9919;58.014;11.826;2024-01-16T09:02:10;0.82;;;0.82;;
19547;SDS011;9919;58.014;11.826;2024-01-16T09:04:12;1.17;;;0.80;;
19547;SDS011;9919;58.014;11.826;2024-01-16T09:06:13;0.82;;;0.70;;
19547;SDS011;9919;58.014;11.826;2024-01-16T09:08:15;0.70;;;0.70;;
19547;SDS011;9919;58.014;11.826;2024-01-16T09:10:16;1.45;;;1.35;;
19547;SDS011;9919;58.014;11.826;2024-01-16T09:12:18;0.80;;;0.80;;
19547;SDS011;9919;58.014;11.826;2024-01-16T09:14:19;0.80;;;0.75;;
19547;SDS011;9919;58.014;11.826;2024-01-16T09:16:21;1.45;;;1.27;;
19547;SDS011;9919;58.014;11.826;2024-01-16T09:18:22;0.82;;;0.63;;
19547;SDS011;9919;58.014;11.826;2024-01-16T09:20:24;0.82;;;0.80;;
19547;SDS011;9919;58.014;11.826;2024-01-16T09:22:25;1.65;;;1.05;;
19547;SDS011;9919;58.014;11.826;2024-01-16T09:24:27;0.88;;;0.88;;
19547;SDS011;9919;58.014;11.826;2024-01-16T09:26:29;1.25;;;0.80;;
19547;SDS011;9919;58.014;11.826;2024-01-16T09:28:31;0.80;;;0.80;;
19547;SDS011;9919;58.014;11.826;2024-01-16T09:30:33;0.95;;;0.95;;
19547;SDS011;9919;58.014;11.826;2024-01-16T09:32:35;1.15;;;0.85;;
19547;SDS011;9919;58.014;11.826;2024-01-16T09:34:37;0.80;;;0.80;;
19547;SDS011;9919;58.014;11.826;2024-01-16T09:36:40;1.25;;;0.77;;
19547;SDS011;9919;58.014;11.826;2024-01-16T09:38:41;4.38;;;1.30;;
19547;SDS011;9919;58.014;11.826;2024-01-16T09:40:43;0.90;;;0.90;;
19547;SDS011;9919;58.014;11.826;2024-01-16T09:42:46;1.52;;;1.23;;
19547;SDS011;9919;58.014;11.826;2024-01-16T09:44:47;1.13;;;1.10;;
19547;SDS011;9919;58.014;11.826;2024-01-16T09:46:49;2.05;;;1.00;;
19547;SDS011;9919;58.014;11.826;2024-01-16T09:48:52;1.67;;;1.48;;
19547;SDS011;9919;58.014;11.826;2024-01-16T09:50:56;1.42;;;1.27;;
19547;SDS011;9919;58.014;11.826;2024-01-16T09:52:57;2.42;;;1.33;;
19547;SDS011;9919;58.014;11.826;2024-01-16T09:54:59;2.60;;;2.10;;
19547;SDS011;9919;58.014;11.826;2024-01-16T09:57:00;2.50;;;1.75;;
19547;SDS011;9919;58.014;11.826;2024-01-16T09:59:05;1.83;;;1.65;;
19547;SDS011;9919;58.014;11.826;2024-01-16T10:01:06;1.70;;;1.58;;
19547;SDS011;9919;58.014;11.826;2024-01-16T10:03:10;2.75;;;1.67;;
19547;SDS011;9919;58.014;11.826;2024-01-16T10:05:12;2.25;;;1.60;;
19547;SDS011;9919;58.014;11.826;2024-01-16T10:07:15;2.72;;;1.80;;
19547;SDS011;9919;58.014;11.826;2024-01-16T10:09:17;1.95;;;1.77;;
19547;SDS011;9919;58.014;11.826;2024-01-16T10:11:18;2.78;;;1.67;;
19547;SDS011;9919;58.014;11.826;2024-01-16T10:13:20;3.08;;;2.15;;
19547;SDS011;9919;58.014;11.826;2024-01-16T10:15:21;4.60;;;1.58;;
19547;SDS011;9919;58.014;11.826;2024-01-16T10:17:34;2.17;;;1.63;;
19547;SDS011;9919;58.014;11.826;2024-01-16T10:19:50;3.10;;;2.15;;
19547;SDS011;9919;58.014;11.826;2024-01-16T10:21:53;1.77;;;1.65;;
19547;SDS011;9919;58.014;11.826;2024-01-16T10:24:12;3.40;;;1.90;;
19547;SDS011;9919;58.014;11.826;2024-01-16T10:26:14;2.25;;;1.90;;
19547;SDS011;9919;58.014;11.826;2024-01-16T10:28:19;2.72;;;2.13;;
19547;SDS011;9919;58.014;11.826;2024-01-16T10:30:21;2.70;;;1.83;;
19547;SDS011;9919;58.014;11.826;2024-01-16T10:32:27;1.98;;;1.38;;
19547;SDS011;9919;58.014;11.826;2024-01-16T10:34:29;1.92;;;1.73;;
19547;SDS011;9919;58.014;11.826;2024-01-16T10:36:31;1.92;;;1.48;;
19547;SDS011;9919;58.014;11.826;2024-01-16T10:38:33;3.92;;;1.67;;
19547;SDS011;9919;58.014;11.826;2024-01-16T10:40:36;3.83;;;1.88;;
19547;SDS011;9919;58.014;11.826;2024-01-16T10:42:37;2.88;;;2.05;;
19547;SDS011;9919;58.014;11.826;2024-01-16T10:44:46;4.32;;;2.30;;
19547;SDS011;9919;58.014;11.826;2024-01-16T10:47:10;5.22;;;2.53;;
19547;SDS011;9919;58.014;11.826;2024-01-16T10:49:12;3.33;;;1.92;;
19547;SDS011;9919;58.014;11.826;2024-01-16T10:51:14;3.85;;;2.28;;
19547;SDS011;9919;58.014;11.826;2024-01-16T10:53:15;2.85;;;1.85;;
19547;SDS011;9919;58.014;11.826;2024-01-16T10:55:19;2.63;;;2.33;;
19547;SDS011;9919;58.014;11.826;2024-01-16T10:57:24;8.25;;;2.40;;
19547;SDS011;9919;58.014;11.826;2024-01-16T10:59:25;3.45;;;2.03;;
19547;SDS011;9919;58.014;11.826;2024-01-16T11:01:34;2.65;;;1.80;;
19547;SDS011;9919;58.014;11.826;2024-01-16T11:05:48;5.78;;;2.08;;
19547;SDS011;9919;58.014;11.826;2024-01-16T11:07:50;4.63;;;2.20;;
19547;SDS011;9919;58.014;11.826;2024-01-16T11:09:53;2.38;;;1.80;;
19547;SDS011;9919;58.014;11.826;2024-01-16T11:11:55;3.42;;;2.03;;
19547;SDS011;9919;58.014;11.826;2024-01-16T11:13:57;1.70;;;1.60;;
19547;SDS011;9919;58.014;11.826;2024-01-16T11:15:59;1.85;;;1.70;;
19547;SDS011;9919;58.014;11.826;2024-01-16T11:18:03;3.55;;;2.03;;
19547;SDS011;9919;58.014;11.826;2024-01-16T11:20:05;2.60;;;2.03;;
19547;SDS011;9919;58.014;11.826;2024-01-16T11:22:10;2.45;;;2.28;;
19547;SDS011;9919;58.014;11.826;2024-01-16T11:24:12;1.92;;;1.83;;
19547;SDS011;9919;58.014;11.826;2024-01-16T11:26:26;1.85;;;1.73;;
19547;SDS011;9919;58.014;11.826;2024-01-16T11:28:32;1.85;;;1.75;;
19547;SDS011;9919;58.014;11.826;2024-01-16T11:30:34;2.97;;;1.98;;
19547;SDS011;9919;58.014;11.826;2024-01-16T11:32:39;2.13;;;1.58;;
19547;SDS011;9919;58.014;11.826;2024-01-16T11:36:51;3.63;;;1.90;;
19547;SDS011;9919;58.014;11.826;2024-01-16T11:38:57;4.70;;;2.28;;
19547;SDS011;9919;58.014;11.826;2024-01-16T11:40:59;2.83;;;1.95;;
19547;SDS011;9919;58.014;11.826;2024-01-16T11:43:46;1.63;;;1.52;;
19547;SDS011;9919;58.014;11.826;2024-01-16T11:47:37;2.15;;;1.92;;
19547;SDS011;9919;58.014;11.826;2024-01-16T11:49:39;2.08;;;1.73;;
19547;SDS011;9919;58.014;11.826;2024-01-16T11:51:41;1.33;;;1.20;;
19547;SDS011;9919;58.014;11.826;2024-01-16T11:53:42;1.77;;;1.38;;
19547;SDS011;9919;58.014;11.826;2024-01-16T11:56:10;2.47;;;1.67;;
19547;SDS011;9919;58.014;11.826;2024-01-16T11:58:26;3.47;;;1.58;;
19547;SDS011;9919;58.014;11.826;2024-01-16T12:00:51;1.85;;;1.30;;
19547;SDS011;9919;58.014;11.826;2024-01-16T12:02:58;2.75;;;1.67;;
19547;SDS011;9919;58.014;11.826;2024-01-16T12:05:03;3.47;;;1.83;;
19547;SDS011;9919;58.014;11.826;2024-01-16T12:07:06;2.50;;;2.25;;
19547;SDS011;9919;58.014;11.826;2024-01-16T12:09:15;1.83;;;1.65;;
19547;SDS011;9919;58.014;11.826;2024-01-16T12:11:20;1.90;;;1.50;;
19547;SDS011;9919;58.014;11.826;2024-01-16T12:13:21;2.05;;;1.83;;
19547;SDS011;9919;58.014;11.826;2024-01-16T12:15:22;3.30;;;1.65;;
19547;SDS011;9919;58.014;11.826;2024-01-16T12:17:24;3.90;;;1.70;;
19547;SDS011;9919;58.014;11.826;2024-01-16T12:19:27;1.13;;;1.05;;
19547;SDS011;9919;58.014;11.826;2024-01-16T12:21:28;1.08;;;1.05;;
19547;SDS011;9919;58.014;11.826;2024-01-16T12:23:30;2.80;;;1.50;;
19547;SDS011;9919;58.014;11.826;2024-01-16T12:25:32;1.00;;;1.00;;